Time;durP1;ratioP1;P1;durP2;ratioP2;P2;SDS_P1;SDS_P2;PMS_P1;PMS_P2;Temp;Humidity;BMP_temperature;BMP_pressure;BME280_temperature;BME280_humidity;BME280_pressure;Samples;Min_cycle;Max_cycle;Signal;HPM_P1;HPM_P2
2022/07/31 00:01:07;;;;;;;0.08;0.00;;;17.30;99.90;;;;;;4995484;28;20057;-73
2022/07/31 00:03:33;;;;;;;0.00;0.00;;;17.40;99.90;;;;;;4995913;28;20043;-73
2022/07/31 00:05:59;;;;;;;0.00;0.00;;;17.30;99.90;;;;;;4995608;28;20050;-73
2022/07/31 00:08:24;;;;;;;0.73;0.35;;;17.20;99.90;;;;;;4995712;28;20038;-73
2022/07/31 00:10:50;;;;;;;0.00;0.00;;;17.20;99.90;;;;;;4995602;28;20042;-73
2022/07/31 00:13:15;;;;;;;0.00;0.00;;;17.20;99.90;;;;;;4995609;28;20125;-73
2022/07/31 00:15:41;;;;;;;0.43;0.20;;;17.40;99.90;;;;;;4995214;28;20500;-73
2022/07/31 00:18:07;;;;;;;0.00;0.00;;;17.20;99.90;;;;;;4995034;28;20054;-73
2022/07/31 00:20:34;;;;;;;0.00;0.00;;;17.30;99.90;;;;;;4995481;28;20043;-73
2022/07/31 00:23:00;;;;;;;0.03;0.03;;;17.30;99.90;;;;;;4995235;28;20125;-74
2022/07/31 00:25:25;;;;;;;0.35;0.25;;;17.20;99.90;;;;;;4995617;28;20529;-73
2022/07/31 00:27:51;;;;;;;0.15;0.10;;;17.10;99.90;;;;;;4995108;28;20053;-73
2022/07/31 00:30:17;;;;;;;0.30;0.20;;;17.00;99.90;;;;;;4995156;28;20049;-73
2022/07/31 00:32:43;;;;;;;0.00;0.00;;;17.00;99.90;;;;;;4994821;28;20154;-73
2022/07/31 00:35:10;;;;;;;0.28;0.17;;;16.90;99.90;;;;;;4995168;28;20050;-73
2022/07/31 00:37:36;;;;;;;0.00;0.00;;;16.80;99.90;;;;;;4993686;28;20092;-73
2022/07/31 00:40:06;;;;;;;0.00;0.00;;;16.70;99.90;;;;;;4994863;28;20536;-73
2022/07/31 00:42:33;;;;;;;0.00;0.00;;;16.60;99.90;;;;;;4993502;28;20504;-73
2022/07/31 00:44:58;;;;;;;0.00;0.00;;;16.60;99.90;;;;;;4994912;28;20092;-73
2022/07/31 00:47:24;;;;;;;0.08;0.08;;;16.60;99.90;;;;;;4994712;28;20393;-74
2022/07/31 00:49:49;;;;;;;0.00;0.00;;;16.60;99.90;;;;;;4994920;28;20046;-73
2022/07/31 00:52:15;;;;;;;0.00;0.00;;;16.60;99.90;;;;;;4994977;28;20042;-73
2022/07/31 00:54:41;;;;;;;0.00;0.00;;;16.70;99.90;;;;;;4994550;28;20086;-73
2022/07/31 00:57:06;;;;;;;0.00;0.00;;;16.70;99.90;;;;;;4994865;28;20054;-73
2022/07/31 00:59:32;;;;;;;0.00;0.00;;;16.60;99.90;;;;;;4994554;28;20403;-73
2022/07/31 01:01:58;;;;;;;0.00;0.00;;;16.70;99.90;;;;;;4994320;28;20039;-73
2022/07/31 01:04:25;;;;;;;0.00;0.00;;;16.60;99.90;;;;;;4994378;28;20144;-73
2022/07/31 01:06:51;;;;;;;0.10;0.10;;;16.60;99.90;;;;;;4994288;28;20097;-73
2022/07/31 01:09:17;;;;;;;0.00;0.00;;;16.60;99.90;;;;;;4994756;28;20042;-73
2022/07/31 01:12:01;;;;;;;0.10;0.10;;;16.50;99.90;;;;;;4994533;28;20081;-73
2022/07/31 01:14:32;;;;;;;0.00;0.00;;;16.40;99.90;;;;;;4994579;28;20442;-73
2022/07/31 01:17:00;;;;;;;0.10;0.10;;;16.30;99.90;;;;;;4993468;28;20058;-73
2022/07/31 01:19:40;;;;;;;0.00;0.00;;;16.20;99.90;;;;;;4994288;28;20484;-73
2022/07/31 01:22:28;;;;;;;0.00;0.00;;;16.10;99.90;;;;;;4994086;28;20381;-73
2022/07/31 01:25:48;;;;;;;0.00;0.00;;;16.00;99.90;;;;;;4992785;28;20049;-73
2022/07/31 01:28:47;;;;;;;0.00;0.00;;;15.90;99.90;;;;;;4933860;29;20118;-73
2022/07/31 01:31:18;;;;;;;0.28;0.25;;;15.80;99.90;;;;;;4993506;28;20578;-73
2022/07/31 01:34:02;;;;;;;0.00;0.00;;;15.70;99.90;;;;;;4993991;28;20090;-73
2022/07/31 01:36:33;;;;;;;0.73;0.10;;;15.70;99.90;;;;;;4993993;28;20430;-73
2022/07/31 01:39:00;;;;;;;0.00;0.00;;;15.70;99.90;;;;;;4994035;28;20050;-73
2022/07/31 01:41:34;;;;;;;0.00;0.00;;;15.70;99.90;;;;;;4993985;28;20376;-73
2022/07/31 01:44:04;;;;;;;0.00;0.00;;;15.80;99.90;;;;;;4994201;28;20061;-73
2022/07/31 01:46:32;;;;;;;0.00;0.00;;;15.80;99.90;;;;;;4994097;28;20374;-73
2022/07/31 01:48:59;;;;;;;0.28;0.28;;;15.80;99.90;;;;;;4976440;28;20056;-73
2022/07/31 01:51:26;;;;;;;0.65;0.47;;;15.80;99.90;;;;;;4994030;28;20048;-73
2022/07/31 01:53:54;;;;;;;0.00;0.00;;;15.80;99.90;;;;;;4992873;28;20042;-73
2022/07/31 01:56:21;;;;;;;0.00;0.00;;;15.80;99.90;;;;;;4993921;28;20513;-73
2022/07/31 01:58:48;;;;;;;0.10;0.00;;;15.80;99.90;;;;;;4994038;28;20054;-73
2022/07/31 02:01:15;;;;;;;0.03;0.03;;;15.90;99.90;;;;;;4993619;28;20441;-73
2022/07/31 02:03:43;;;;;;;0.20;0.20;;;16.00;99.90;;;;;;4976296;28;20080;-73
2022/07/31 02:06:10;;;;;;;0.00;0.00;;;16.10;99.90;;;;;;4993957;28;20101;-73
2022/07/31 02:08:37;;;;;;;0.00;0.00;;;16.10;99.90;;;;;;4993661;28;20051;-73
2022/07/31 02:11:03;;;;;;;0.25;0.15;;;16.20;99.90;;;;;;4993722;28;20173;-73
2022/07/31 02:13:30;;;;;;;0.32;0.20;;;16.30;99.90;;;;;;4993827;28;20115;-73
2022/07/31 02:15:58;;;;;;;1.17;0.50;;;16.30;99.90;;;;;;4993673;28;20049;-73
2022/07/31 02:18:24;;;;;;;0.00;0.00;;;16.40;99.90;;;;;;4993502;28;20526;-73
2022/07/31 02:20:50;;;;;;;0.50;0.30;;;16.50;99.90;;;;;;4993517;28;20054;-73
2022/07/31 02:23:17;;;;;;;0.10;0.10;;;16.50;99.90;;;;;;4993387;28;20133;-73
2022/07/31 02:25:45;;;;;;;0.10;0.10;;;16.60;99.90;;;;;;4992045;28;20050;-73
2022/07/31 02:28:14;;;;;;;0.00;0.00;;;16.70;99.90;;;;;;4993836;28;20117;-73
2022/07/31 02:30:43;;;;;;;0.00;0.00;;;16.70;99.90;;;;;;4993452;28;20051;-73
2022/07/31 02:33:16;;;;;;;0.00;0.00;;;16.80;99.90;;;;;;4993611;28;20066;-73
2022/07/31 02:35:44;;;;;;;0.30;0.30;;;16.90;99.90;;;;;;4993254;28;20058;-73
2022/07/31 02:38:11;;;;;;;0.25;0.20;;;17.00;99.90;;;;;;4993257;28;20473;-73
2022/07/31 02:40:38;;;;;;;0.00;0.00;;;17.00;99.90;;;;;;4993858;28;20465;-73
2022/07/31 02:43:04;;;;;;;0.00;0.00;;;17.00;99.90;;;;;;4997098;28;20362;-73
2022/07/31 02:45:31;;;;;;;1.13;0.63;;;17.00;99.90;;;;;;4996943;28;20514;-73
2022/07/31 02:47:57;;;;;;;1.08;0.57;;;17.10;99.90;;;;;;4996981;28;20042;-73
2022/07/31 02:50:22;;;;;;;0.00;0.00;;;17.20;99.90;;;;;;4996800;28;20049;-73
2022/07/31 02:52:48;;;;;;;0.32;0.28;;;17.20;99.90;;;;;;4996639;28;20477;-74
2022/07/31 02:55:14;;;;;;;0.10;0.10;;;17.20;99.90;;;;;;4996923;28;20138;-74
2022/07/31 02:57:39;;;;;;;0.17;0.10;;;17.20;99.90;;;;;;4997031;28;20066;-74
2022/07/31 03:00:21;;;;;;;0.60;0.25;;;17.20;99.90;;;;;;4996584;28;20038;-73
2022/07/31 03:02:48;;;;;;;0.00;0.00;;;17.30;99.90;;;;;;4996716;28;20045;-73
2022/07/31 03:05:15;;;;;;;0.00;0.00;;;17.30;99.90;;;;;;4996737;28;20254;-73
2022/07/31 03:07:41;;;;;;;0.10;0.10;;;17.20;99.90;;;;;;4996895;28;20086;-74
2022/07/31 03:10:09;;;;;;;0.32;0.22;;;17.20;99.90;;;;;;4996815;28;20081;-74
2022/07/31 03:12:35;;;;;;;0.10;0.10;;;17.20;99.90;;;;;;4996807;28;20057;-73
2022/07/31 03:15:02;;;;;;;0.20;0.10;;;17.30;99.90;;;;;;4996710;28;20050;-73
2022/07/31 03:17:28;;;;;;;0.30;0.10;;;17.30;99.90;;;;;;4996781;28;20046;-73
2022/07/31 03:19:54;;;;;;;3.15;0.77;;;17.30;99.90;;;;;;4996279;28;20536;-73
2022/07/31 03:22:19;;;;;;;0.17;0.17;;;17.30;99.90;;;;;;4996818;28;20051;-73
2022/07/31 03:24:45;;;;;;;0.43;0.25;;;17.40;99.90;;;;;;4996376;28;20053;-73
2022/07/31 03:27:11;;;;;;;0.17;0.13;;;17.20;99.90;;;;;;4996448;28;20129;-73
2022/07/31 03:29:39;;;;;;;0.20;0.20;;;17.10;99.90;;;;;;4996298;28;20051;-74
2022/07/31 03:32:05;;;;;;;0.00;0.00;;;17.20;99.90;;;;;;4996044;28;20090;-74
2022/07/31 03:34:31;;;;;;;0.00;0.00;;;17.20;99.90;;;;;;4996459;28;20059;-74
2022/07/31 03:36:57;;;;;;;0.20;0.10;;;17.20;99.90;;;;;;4996271;28;20051;-74
2022/07/31 03:39:24;;;;;;;0.10;0.08;;;17.20;99.90;;;;;;4996434;28;20053;-74
2022/07/31 03:41:52;;;;;;;0.20;0.20;;;17.10;99.90;;;;;;4996241;28;20046;-74
2022/07/31 03:44:19;;;;;;;0.45;0.40;;;17.10;99.90;;;;;;4996003;28;20097;-74
2022/07/31 03:46:45;;;;;;;0.25;0.17;;;16.90;99.90;;;;;;4995798;28;20113;-73
2022/07/31 03:49:11;;;;;;;0.03;0.03;;;16.80;99.90;;;;;;4996200;28;20470;-73
2022/07/31 03:51:37;;;;;;;0.00;0.00;;;16.80;99.90;;;;;;4996042;28;20528;-73
2022/07/31 03:54:02;;;;;;;0.10;0.10;;;16.70;99.90;;;;;;4995276;28;20075;-73
2022/07/31 03:56:28;;;;;;;0.00;0.00;;;16.70;99.90;;;;;;4995876;28;20089;-73
2022/07/31 03:58:54;;;;;;;1.27;0.30;;;16.60;99.90;;;;;;4995693;28;20121;-73
2022/07/31 04:01:20;;;;;;;0.65;0.32;;;16.60;99.90;;;;;;4995488;28;20432;-73
2022/07/31 04:03:46;;;;;;;0.30;0.30;;;16.50;99.90;;;;;;4995918;28;20058;-73
2022/07/31 04:06:11;;;;;;;0.45;0.32;;;16.50;99.90;;;;;;4994282;28;20038;-73
2022/07/31 04:08:38;;;;;;;0.05;0.05;;;16.50;99.90;;;;;;4995867;28;20046;-74
2022/07/31 04:11:03;;;;;;;0.00;0.00;;;16.60;99.90;;;;;;4995521;28;20462;-73
2022/07/31 04:13:29;;;;;;;0.25;0.25;;;16.70;99.90;;;;;;4995454;28;20153;-74
2022/07/31 04:15:54;;;;;;;0.10;0.00;;;16.80;99.90;;;;;;4995193;28;20046;-74
2022/07/31 04:18:20;;;;;;;0.65;0.22;;;16.80;99.90;;;;;;4995755;28;20057;-74
2022/07/31 04:20:45;;;;;;;0.00;0.00;;;16.90;99.90;;;;;;4995384;28;20396;-74
2022/07/31 04:23:11;;;;;;;0.00;0.00;;;16.90;99.90;;;;;;4995322;28;20174;-74
2022/07/31 04:25:36;;;;;;;0.00;0.00;;;17.00;99.90;;;;;;4995296;28;20046;-74
2022/07/31 04:28:02;;;;;;;0.70;0.45;;;17.10;99.90;;;;;;4994983;28;20054;-74
2022/07/31 04:30:28;;;;;;;4.18;0.90;;;17.10;99.90;;;;;;4995351;28;20046;-74
2022/07/31 04:32:53;;;;;;;0.40;0.15;;;17.20;99.90;;;;;;4995237;28;20552;-74
2022/07/31 04:35:19;;;;;;;0.17;0.17;;;17.30;99.90;;;;;;4995185;28;20492;-74
2022/07/31 04:37:45;;;;;;;0.10;0.10;;;17.40;99.90;;;;;;4995011;28;20056;-74
2022/07/31 04:40:10;;;;;;;2.38;0.65;;;17.50;99.90;;;;;;4995057;28;20137;-74
2022/07/31 04:42:36;;;;;;;0.32;0.10;;;17.50;99.90;;;;;;4994971;28;20046;-74
2022/07/31 04:45:02;;;;;;;0.00;0.00;;;17.70;99.90;;;;;;4995134;28;20046;-74
2022/07/31 04:47:27;;;;;;;0.13;0.00;;;17.70;99.90;;;;;;4995162;28;20050;-74
2022/07/31 04:49:53;;;;;;;0.73;0.20;;;17.80;99.90;;;;;;4994704;28;20401;-74
2022/07/31 04:52:19;;;;;;;0.55;0.30;;;17.80;99.90;;;;;;4994977;28;20125;-74
2022/07/31 04:54:44;;;;;;;1.02;0.35;;;18.20;99.90;;;;;;4994461;28;20049;-74
2022/07/31 04:57:10;;;;;;;1.02;0.60;;;17.80;99.90;;;;;;4994845;28;20473;-74
2022/07/31 04:59:35;;;;;;;0.10;0.10;;;17.90;99.90;;;;;;4994518;28;20042;-74
2022/07/31 05:02:01;;;;;;;0.00;0.00;;;17.90;99.90;;;;;;4994211;28;20042;-74
2022/07/31 05:04:27;;;;;;;0.00;0.00;;;17.90;99.90;;;;;;4993684;28;20047;-74
2022/07/31 05:06:53;;;;;;;1.65;0.30;;;17.90;99.90;;;;;;4994403;28;20494;-74
2022/07/31 05:09:22;;;;;;;0.52;0.38;;;17.90;99.90;;;;;;4994479;28;20118;-74
2022/07/31 05:11:49;;;;;;;0.20;0.20;;;18.00;99.90;;;;;;4994313;28;20088;-74
2022/07/31 05:14:16;;;;;;;0.00;0.00;;;17.90;99.90;;;;;;4994548;28;20046;-74
2022/07/31 05:16:43;;;;;;;0.00;0.00;;;17.90;99.90;;;;;;4994440;28;20093;-74
2022/07/31 05:19:08;;;;;;;0.00;0.00;;;18.00;99.90;;;;;;4994410;28;20413;-74
2022/07/31 05:21:34;;;;;;;0.80;0.38;;;18.00;99.90;;;;;;4994182;28;20042;-74
2022/07/31 05:24:00;;;;;;;0.10;0.10;;;17.80;99.90;;;;;;4994124;28;20378;-74
2022/07/31 05:26:27;;;;;;;0.05;0.05;;;18.10;99.90;;;;;;4994475;28;20057;-74
2022/07/31 05:28:54;;;;;;;0.00;0.00;;;18.10;99.90;;;;;;4993833;28;20401;-74
2022/07/31 05:31:21;;;;;;;0.08;0.00;;;18.40;99.90;;;;;;4994189;28;20432;-74
2022/07/31 05:33:48;;;;;;;0.10;0.10;;;18.20;99.90;;;;;;4994069;28;20134;-74
2022/07/31 05:36:14;;;;;;;0.30;0.20;;;18.30;99.90;;;;;;4994158;28;20433;-74
2022/07/31 05:38:41;;;;;;;0.65;0.63;;;18.40;99.90;;;;;;4993894;28;20050;-74
2022/07/31 05:41:07;;;;;;;0.10;0.10;;;18.40;99.90;;;;;;4993763;28;20085;-74
2022/07/31 05:43:33;;;;;;;2.65;0.80;;;18.50;99.90;;;;;;4993727;28;20074;-74
2022/07/31 05:45:58;;;;;;;1.00;0.55;;;18.40;99.90;;;;;;4993962;28;20042;-74
2022/07/31 05:48:24;;;;;;;0.00;0.00;;;18.50;99.90;;;;;;4993922;28;20042;-74
2022/07/31 05:50:51;;;;;;;1.10;0.82;;;18.50;99.90;;;;;;4993742;28;20050;-74
2022/07/31 05:53:17;;;;;;;0.10;0.10;;;18.40;99.90;;;;;;4993756;28;20042;-74
2022/07/31 05:55:48;;;;;;;0.25;0.25;;;18.40;99.90;;;;;;4993816;28;20046;-74
2022/07/31 05:58:15;;;;;;;0.00;0.00;;;18.40;99.90;;;;;;4993964;28;20054;-74
2022/07/31 06:00:43;;;;;;;0.52;0.38;;;18.40;99.90;;;;;;4993497;28;20485;-74
2022/07/31 06:03:10;;;;;;;0.60;0.20;;;18.50;99.90;;;;;;4993507;28;20058;-74
2022/07/31 06:05:37;;;;;;;0.08;0.08;;;18.60;99.90;;;;;;4993647;28;20055;-74
2022/07/31 06:08:03;;;;;;;0.00;0.00;;;18.70;99.90;;;;;;4994066;28;20489;-74
2022/07/31 06:10:29;;;;;;;0.52;0.32;;;18.90;99.90;;;;;;4993959;28;20093;-74
2022/07/31 06:12:54;;;;;;;0.20;0.20;;;19.00;99.90;;;;;;4994000;28;20076;-74
2022/07/31 06:15:20;;;;;;;0.00;0.00;;;19.10;99.90;;;;;;4993815;28;20047;-74
2022/07/31 06:17:46;;;;;;;0.90;0.57;;;19.10;99.90;;;;;;4997681;28;20347;-75
2022/07/31 06:20:13;;;;;;;0.10;0.10;;;19.20;99.90;;;;;;4997586;28;20078;-74
2022/07/31 06:22:39;;;;;;;0.10;0.10;;;19.20;99.90;;;;;;4997636;28;20432;-74
2022/07/31 06:25:09;;;;;;;0.13;0.08;;;19.20;99.90;;;;;;4997384;28;20038;-74
2022/07/31 06:27:35;;;;;;;0.73;0.50;;;19.20;99.90;;;;;;4997559;28;20124;-74
2022/07/31 06:30:02;;;;;;;0.00;0.00;;;20.30;99.90;;;;;;4997544;28;20047;-74
2022/07/31 06:32:28;;;;;;;0.00;0.00;;;19.40;99.90;;;;;;4997393;28;20054;-74
2022/07/31 06:34:53;;;;;;;1.25;0.90;;;19.40;99.90;;;;;;4997434;28;20070;-75
2022/07/31 06:37:19;;;;;;;0.05;0.05;;;19.50;99.90;;;;;;4997445;28;20050;-74
2022/07/31 06:39:45;;;;;;;0.22;0.10;;;19.70;99.90;;;;;;4997251;28;20041;-75
2022/07/31 06:42:16;;;;;;;0.13;0.13;;;19.90;99.90;;;;;;4996861;28;20078;-74
2022/07/31 06:44:42;;;;;;;0.40;0.40;;;20.00;99.90;;;;;;4997376;28;20050;-75
2022/07/31 06:47:08;;;;;;;0.00;0.00;;;20.30;99.90;;;;;;4997121;28;20069;-74
2022/07/31 06:49:33;;;;;;;0.20;0.15;;;20.30;99.90;;;;;;4996788;28;20416;-75
2022/07/31 06:51:59;;;;;;;0.47;0.28;;;20.40;99.90;;;;;;4997082;28;20397;-75
2022/07/31 06:54:24;;;;;;;1.33;0.17;;;20.30;99.90;;;;;;4996725;28;20046;-75
2022/07/31 06:56:50;;;;;;;0.25;0.17;;;20.30;99.90;;;;;;4997084;28;20047;-75
2022/07/31 06:59:16;;;;;;;0.22;0.22;;;20.40;99.90;;;;;;4996634;28;20042;-74
2022/07/31 07:01:41;;;;;;;1.10;0.52;;;20.50;99.90;;;;;;4996649;28;20052;-74
2022/07/31 07:04:08;;;;;;;0.60;0.60;;;20.40;99.90;;;;;;4996974;28;20122;-75
2022/07/31 07:06:34;;;;;;;0.20;0.20;;;20.50;99.90;;;;;;4996695;28;20058;-75
2022/07/31 07:08:59;;;;;;;0.15;0.15;;;20.40;99.90;;;;;;4996732;28;20046;-75
2022/07/31 07:11:25;;;;;;;0.38;0.28;;;20.40;99.90;;;;;;4996915;28;20049;-75
2022/07/31 07:13:50;;;;;;;0.80;0.75;;;20.40;99.90;;;;;;4996857;28;20141;-74
2022/07/31 07:16:16;;;;;;;0.05;0.05;;;20.50;99.90;;;;;;4996676;28;20050;-74
2022/07/31 07:18:42;;;;;;;0.28;0.28;;;20.50;99.90;;;;;;4996538;28;20034;-74
2022/07/31 07:21:07;;;;;;;0.10;0.10;;;20.50;99.90;;;;;;4996611;28;20121;-75
2022/07/31 07:23:33;;;;;;;0.20;0.15;;;20.50;99.90;;;;;;4996375;28;20496;-75
2022/07/31 07:25:59;;;;;;;0.65;0.55;;;20.50;99.90;;;;;;4996655;28;20057;-74
2022/07/31 07:28:24;;;;;;;0.35;0.28;;;20.50;99.90;;;;;;4995444;28;20046;-74
2022/07/31 07:30:50;;;;;;;0.20;0.20;;;20.60;99.90;;;;;;4996371;28;20045;-74
2022/07/31 07:33:15;;;;;;;0.38;0.38;;;20.70;99.90;;;;;;4996202;28;20085;-74
2022/07/31 07:35:41;;;;;;;0.52;0.32;;;20.80;99.90;;;;;;4995999;28;20054;-75
2022/07/31 07:38:07;;;;;;;14.80;1.95;;;20.90;99.90;;;;;;4996424;28;20046;-75
2022/07/31 07:40:32;;;;;;;0.55;0.47;;;21.10;99.90;;;;;;4996322;28;20130;-74
2022/07/31 07:42:58;;;;;;;0.22;0.22;;;21.00;99.90;;;;;;4978394;28;20076;-74
2022/07/31 07:45:24;;;;;;;0.30;0.30;;;21.10;99.90;;;;;;4995987;28;20125;-75
2022/07/31 07:47:49;;;;;;;0.43;0.28;;;21.20;99.90;;;;;;4996112;28;20458;-74
2022/07/31 07:50:15;;;;;;;0.10;0.10;;;21.40;99.90;;;;;;4996020;28;20489;-75
2022/07/31 07:52:41;;;;;;;0.17;0.17;;;21.60;99.90;;;;;;4996062;28;20053;-75
2022/07/31 07:55:08;;;;;;;1.73;1.38;;;21.70;99.90;;;;;;4996075;28;20121;-74
2022/07/31 07:57:36;;;;;;;0.00;0.00;;;21.90;99.90;;;;;;4996055;28;20057;-75
2022/07/31 08:00:05;;;;;;;0.00;0.00;;;22.10;99.90;;;;;;4995680;28;20072;-75
2022/07/31 08:02:31;;;;;;;1.10;0.55;;;22.30;99.90;;;;;;4995793;28;20047;-75
2022/07/31 08:04:57;;;;;;;0.50;0.35;;;22.50;99.90;;;;;;4995442;28;20093;-75
2022/07/31 08:07:27;;;;;;;0.20;0.20;;;22.80;99.90;;;;;;4995588;28;20069;-74
2022/07/31 08:09:53;;;;;;;1.35;1.10;;;23.20;98.20;;;;;;4995658;28;20042;-75
2022/07/31 08:12:19;;;;;;;0.95;0.43;;;23.70;95.80;;;;;;4995656;28;20068;-75
2022/07/31 08:14:44;;;;;;;0.10;0.10;;;23.90;91.70;;;;;;4995569;28;20053;-75
2022/07/31 08:17:11;;;;;;;1.20;0.60;;;24.00;90.20;;;;;;4995427;28;20052;-75
2022/07/31 08:19:36;;;;;;;0.35;0.30;;;24.00;91.70;;;;;;4995570;28;20054;-75
2022/07/31 08:22:02;;;;;;;0.38;0.17;;;24.60;91.20;;;;;;4995528;28;20049;-75
2022/07/31 08:24:28;;;;;;;0.25;0.25;;;24.40;89.20;;;;;;4995415;28;20057;-74
2022/07/31 08:29:38;;;;;;;0.30;0.20;;;24.70;86.80;;;;;;4995224;28;20058;-75
2022/07/31 08:32:03;;;;;;;0.00;0.00;;;24.30;81.60;;;;;;4995086;28;20042;-75
2022/07/31 08:34:29;;;;;;;0.30;0.25;;;24.60;85.70;;;;;;4995166;28;20638;-75
2022/07/31 08:36:55;;;;;;;1.02;0.43;;;24.50;88.00;;;;;;4994974;28;20070;-75
2022/07/31 08:39:20;;;;;;;0.68;0.68;;;24.30;86.70;;;;;;4994739;28;20065;-75
2022/07/31 08:41:46;;;;;;;2.10;1.08;;;24.10;90.60;;;;;;4994922;28;20050;-75
2022/07/31 08:44:12;;;;;;;1.90;0.82;;;23.80;97.20;;;;;;4994781;28;20050;-75
2022/07/31 08:46:39;;;;;;;0.10;0.10;;;23.40;97.50;;;;;;4995078;28;20160;-75
2022/07/31 08:49:08;;;;;;;0.20;0.20;;;23.00;99.90;;;;;;4995030;28;20094;-75
2022/07/31 08:51:35;;;;;;;1.08;0.80;;;22.90;99.90;;;;;;4994870;28;20042;-75
2022/07/31 08:54:06;;;;;;;1.35;0.75;;;22.80;99.90;;;;;;4994930;28;20127;-75
2022/07/31 08:56:39;;;;;;;0.63;0.63;;;22.60;99.90;;;;;;4994785;28;20045;-74
2022/07/31 08:59:06;;;;;;;1.40;0.68;;;22.60;99.90;;;;;;4994886;28;20050;-75
2022/07/31 09:01:32;;;;;;;0.40;0.22;;;22.50;99.90;;;;;;4994553;28;20050;-74
2022/07/31 09:03:58;;;;;;;0.10;0.10;;;22.40;99.90;;;;;;4995039;28;20130;-75
2022/07/31 09:06:24;;;;;;;0.22;0.22;;;22.40;99.90;;;;;;4994839;28;20042;-75
2022/07/31 09:08:50;;;;;;;0.85;0.40;;;22.20;99.90;;;;;;4994471;28;20323;-74
2022/07/31 09:11:17;;;;;;;0.50;0.40;;;21.90;99.90;;;;;;4994610;28;20382;-75
2022/07/31 09:14:03;;;;;;;0.10;0.10;;;21.50;99.90;;;;;;4994465;28;20413;-75
2022/07/31 09:16:29;;;;;;;2.67;0.50;;;21.20;99.90;;;;;;4994748;28;20050;-75
2022/07/31 09:19:01;;;;;;;0.65;0.65;;;20.80;99.90;;;;;;4994711;28;20165;-75
2022/07/31 09:21:38;;;;;;;0.43;0.38;;;20.50;99.90;;;;;;4994339;28;20381;-75
2022/07/31 09:24:05;;;;;;;1.13;0.68;;;20.30;99.90;;;;;;4994301;28;20049;-75
2022/07/31 09:26:33;;;;;;;0.55;0.40;;;20.10;99.90;;;;;;4994347;28;20050;-75
2022/07/31 09:29:01;;;;;;;0.35;0.30;;;20.10;99.90;;;;;;4994574;28;20405;-75
2022/07/31 09:31:33;;;;;;;1.15;0.88;;;20.10;99.90;;;;;;4994065;28;20492;-75
2022/07/31 09:34:00;;;;;;;2.17;1.23;;;20.10;99.90;;;;;;4994085;28;20447;-75
2022/07/31 09:36:25;;;;;;;2.30;1.35;;;20.20;99.90;;;;;;4994219;28;20058;-75
2022/07/31 09:38:52;;;;;;;1.02;0.93;;;20.30;99.90;;;;;;4994042;28;20034;-75
2022/07/31 09:41:20;;;;;;;1.08;0.73;;;20.20;99.90;;;;;;4994227;28;20046;-75
2022/07/31 09:44:01;;;;;;;0.10;0.10;;;20.20;99.90;;;;;;4994043;28;20510;-75
2022/07/31 09:46:48;;;;;;;0.47;0.45;;;20.00;99.90;;;;;;4993878;28;20042;-76
2022/07/31 09:49:14;;;;;;;0.52;0.50;;;20.00;99.90;;;;;;4993637;28;20165;-76
2022/07/31 09:51:45;;;;;;;1.52;0.80;;;20.10;99.90;;;;;;4992287;28;20042;-77
2022/07/31 09:54:22;;;;;;;1.75;0.73;;;19.90;99.90;;;;;;4993982;28;20078;-77
2022/07/31 09:56:49;;;;;;;0.38;0.38;;;19.70;99.90;;;;;;4994183;28;20042;-78
2022/07/31 09:59:14;;;;;;;1.75;0.65;;;19.70;99.90;;;;;;4993999;28;20500;-77
2022/07/31 10:01:41;;;;;;;1.67;1.35;;;19.50;99.90;;;;;;4994506;28;20042;-77
2022/07/31 10:04:08;;;;;;;1.48;1.17;;;19.40;99.90;;;;;;4994751;28;20137;-77
2022/07/31 10:06:35;;;;;;;0.50;0.43;;;19.20;99.90;;;;;;4996185;28;20135;-75
2022/07/31 10:09:03;;;;;;;0.25;0.20;;;19.20;99.90;;;;;;4996909;28;20484;-75
2022/07/31 10:11:30;;;;;;;4.22;1.23;;;19.00;99.90;;;;;;4998205;28;20043;-75
2022/07/31 10:14:00;;;;;;;1.20;0.93;;;18.90;99.90;;;;;;4998527;28;20053;-75
2022/07/31 10:16:28;;;;;;;1.02;0.55;;;19.00;99.90;;;;;;4999792;28;20038;-75
2022/07/31 10:18:58;;;;;;;3.03;0.93;;;18.80;99.90;;;;;;4998062;28;20045;-76
2022/07/31 10:21:37;;;;;;;3.10;0.75;;;18.90;99.90;;;;;;4994436;28;20122;-76
2022/07/31 10:24:04;;;;;;;0.70;0.60;;;19.10;99.90;;;;;;4995712;28;20054;-76
2022/07/31 10:26:29;;;;;;;1.55;0.98;;;19.40;99.90;;;;;;4995657;28;20069;-76
2022/07/31 10:28:56;;;;;;;0.35;0.35;;;19.60;99.90;;;;;;4996338;28;20039;-75
2022/07/31 10:31:22;;;;;;;0.82;0.65;;;19.80;99.90;;;;;;4997325;28;20066;-75
2022/07/31 10:33:51;;;;;;;1.05;0.73;;;20.00;99.90;;;;;;4997050;28;20047;-75
2022/07/31 10:36:24;;;;;;;0.47;0.45;;;20.10;99.90;;;;;;4998414;28;20117;-74
2022/07/31 10:39:04;;;;;;;1.13;0.73;;;20.10;99.90;;;;;;4999285;28;20046;-75
2022/07/31 10:41:59;;;;;;;1.58;1.00;;;19.90;99.90;;;;;;4996845;28;20054;-75
2022/07/31 10:44:38;;;;;;;0.32;0.32;;;19.80;99.90;;;;;;4998750;28;20050;-75
2022/07/31 10:47:14;;;;;;;0.35;0.35;;;19.70;99.90;;;;;;5001231;28;20054;-75
2022/07/31 10:49:42;;;;;;;0.55;0.50;;;19.70;99.90;;;;;;5001803;28;20064;-76
2022/07/31 10:52:08;;;;;;;0.65;0.43;;;19.60;99.90;;;;;;4996502;28;20065;-77
2022/07/31 10:54:42;;;;;;;1.00;0.60;;;19.50;99.90;;;;;;4998904;28;20050;-76
2022/07/31 10:57:19;;;;;;;1.48;1.17;;;19.40;99.90;;;;;;5003289;28;20043;-76
2022/07/31 10:59:45;;;;;;;0.98;0.47;;;19.30;99.90;;;;;;5009433;28;20050;-76
2022/07/31 11:02:10;;;;;;;0.43;0.25;;;19.40;99.90;;;;;;5011741;28;20048;-75
2022/07/31 11:04:36;;;;;;;1.05;0.65;;;19.80;99.90;;;;;;5014949;28;20085;-75
2022/07/31 11:07:13;;;;;;;0.98;0.65;;;19.80;99.90;;;;;;5016012;28;20027;-75
2022/07/31 11:09:40;;;;;;;0.52;0.52;;;19.50;99.90;;;;;;5014884;28;20066;-75
2022/07/31 11:12:19;;;;;;;0.30;0.30;;;19.30;99.90;;;;;;5014080;28;20042;-75
2022/07/31 11:14:45;;;;;;;1.27;1.17;;;19.20;99.90;;;;;;5013941;28;20042;-75
2022/07/31 11:17:10;;;;;;;0.98;0.57;;;19.10;99.90;;;;;;5011991;28;20065;-76
2022/07/31 11:19:41;;;;;;;1.02;0.77;;;19.10;99.90;;;;;;5003154;28;20050;-77
2022/07/31 11:22:14;;;;;;;0.75;0.35;;;19.00;99.90;;;;;;5006784;28;20046;-76
2022/07/31 11:24:40;;;;;;;2.03;1.00;;;19.00;99.90;;;;;;5015691;28;20042;-75
2022/07/31 11:27:06;;;;;;;2.40;1.48;;;19.00;99.90;;;;;;5017003;28;20046;-76
2022/07/31 11:29:36;;;;;;;0.98;0.60;;;19.10;99.90;;;;;;5017199;28;20070;-76
2022/07/31 11:32:04;;;;;;;1.00;0.63;;;19.20;99.90;;;;;;5017356;28;20057;-76
2022/07/31 11:34:30;;;;;;;2.17;1.17;;;19.30;99.90;;;;;;5016905;28;20034;-75
2022/07/31 11:36:56;;;;;;;4.07;2.63;;;19.20;99.90;;;;;;5016096;28;20042;-75
2022/07/31 11:39:25;;;;;;;1.40;0.40;;;19.30;99.90;;;;;;5014677;28;20142;-76
2022/07/31 11:41:51;;;;;;;0.52;0.52;;;19.10;99.90;;;;;;5014934;28;20050;-75
2022/07/31 11:44:23;;;;;;;0.75;0.75;;;19.00;99.90;;;;;;5015778;28;20053;-76
2022/07/31 11:46:50;;;;;;;2.88;0.77;;;18.90;99.90;;;;;;5013731;28;20389;-75
2022/07/31 11:49:22;;;;;;;0.57;0.52;;;18.80;99.90;;;;;;5015330;28;20046;-75
2022/07/31 11:51:48;;;;;;;3.80;1.38;;;18.70;99.90;;;;;;5015340;28;20053;-75
2022/07/31 11:54:24;;;;;;;6.20;1.35;;;18.70;99.90;;;;;;5014030;28;20054;-75
2022/07/31 11:56:56;;;;;;;1.23;1.10;;;18.70;99.90;;;;;;5012438;28;20069;-74
2022/07/31 11:59:36;;;;;;;1.70;0.88;;;18.60;99.90;;;;;;5010506;28;20039;-75
2022/07/31 12:02:20;;;;;;;2.90;0.68;;;18.60;99.90;;;;;;5014861;28;20051;-76
2022/07/31 12:04:46;;;;;;;1.60;1.10;;;18.50;99.90;;;;;;5013571;28;20054;-76
2022/07/31 12:07:11;;;;;;;0.70;0.63;;;18.40;99.90;;;;;;5013749;28;20053;-77
2022/07/31 12:09:37;;;;;;;1.42;0.63;;;18.50;99.90;;;;;;5015390;28;20045;-77
2022/07/31 12:12:03;;;;;;;3.28;1.67;;;18.50;99.90;;;;;;5018807;28;20034;-77
2022/07/31 12:14:36;;;;;;;3.33;2.13;;;18.40;99.90;;;;;;5016811;28;20117;-75
2022/07/31 12:17:05;;;;;;;3.90;2.05;;;18.30;99.90;;;;;;5015921;28;20074;-75
2022/07/31 12:19:36;;;;;;;0.68;0.55;;;18.20;99.90;;;;;;5016766;28;20096;-75
2022/07/31 12:22:16;;;;;;;0.55;0.50;;;18.20;99.90;;;;;;5017805;28;20030;-75
2022/07/31 12:24:42;;;;;;;1.83;1.38;;;18.20;99.90;;;;;;5017184;28;20057;-75
2022/07/31 12:27:07;;;;;;;2.85;1.35;;;18.20;99.90;;;;;;5017636;28;20042;-75
2022/07/31 12:29:36;;;;;;;2.35;1.50;;;18.30;99.90;;;;;;5017008;28;20101;-75
2022/07/31 12:32:04;;;;;;;0.55;0.50;;;18.40;99.90;;;;;;5017262;28;20034;-75
2022/07/31 12:34:31;;;;;;;0.68;0.63;;;18.40;99.90;;;;;;5015364;28;20077;-74
2022/07/31 12:37:11;;;;;;;1.38;1.27;;;18.50;99.90;;;;;;5013616;28;20050;-75
2022/07/31 12:39:57;;;;;;;5.68;1.88;;;18.50;99.90;;;;;;5010922;28;20046;-75
2022/07/31 12:42:31;;;;;;;2.38;2.00;;;18.50;99.90;;;;;;5009505;28;20054;-75
2022/07/31 12:44:59;;;;;;;1.92;0.80;;;18.50;99.90;;;;;;5009871;28;20088;-74
2022/07/31 12:47:28;;;;;;;1.90;1.08;;;18.50;99.90;;;;;;5009444;28;20050;-75
2022/07/31 12:49:55;;;;;;;1.40;0.80;;;18.50;99.90;;;;;;5010511;28;20401;-76
2022/07/31 12:52:22;;;;;;;1.73;1.27;;;18.50;99.90;;;;;;5009285;28;20605;-75
2022/07/31 12:54:50;;;;;;;3.13;1.23;;;18.50;99.90;;;;;;5006191;28;20080;-75